createdAt,value
2022-12-24T00:03:11.794Z,0
2022-12-24T00:08:11.683Z,0
2022-12-24T00:13:11.679Z,0
2022-12-24T00:18:11.715Z,0
2022-12-24T00:23:11.705Z,0
2022-12-24T00:28:11.696Z,0
2022-12-24T00:33:11.675Z,0
2022-12-24T00:38:11.707Z,0
2022-12-24T00:43:11.695Z,0
2022-12-24T00:48:11.674Z,0
2022-12-24T00:53:11.685Z,0
2022-12-24T00:58:11.695Z,0
2022-12-24T01:03:11.735Z,0
2022-12-24T01:08:11.679Z,0
2022-12-24T01:13:11.670Z,0
2022-12-24T01:18:11.695Z,0
2022-12-24T01:23:11.679Z,0
2022-12-24T01:28:11.668Z,0
2022-12-24T01:33:11.670Z,0
2022-12-24T01:38:11.686Z,0
2022-12-24T01:43:11.614Z,0
2022-12-24T01:48:11.628Z,0
2022-12-24T01:53:11.637Z,0
2022-12-24T01:58:11.674Z,0
2022-12-24T02:03:11.701Z,0
2022-12-24T02:08:11.608Z,0
2022-12-24T02:13:11.642Z,0
2022-12-24T02:18:11.620Z,0
2022-12-24T02:23:11.605Z,0
2022-12-24T02:28:11.613Z,0
2022-12-24T02:33:11.632Z,0
2022-12-24T02:38:11.661Z,0
2022-12-24T02:43:11.610Z,0
2022-12-24T02:48:11.606Z,0
2022-12-24T02:53:11.630Z,0
2022-12-24T02:58:11.616Z,0
2022-12-24T03:03:11.612Z,0
2022-12-24T03:08:11.583Z,0
2022-12-24T03:13:11.599Z,0
2022-12-24T03:18:11.607Z,0
2022-12-24T03:23:11.592Z,0
2022-12-24T03:28:11.570Z,0
2022-12-24T03:33:11.583Z,0
2022-12-24T03:38:11.622Z,0
2022-12-24T03:43:11.557Z,0
2022-12-24T03:48:11.591Z,0
2022-12-24T03:53:11.585Z,0
2022-12-24T03:58:11.593Z,0
2022-12-24T04:03:11.674Z,0
2022-12-24T04:08:11.547Z,0
2022-12-24T04:13:11.583Z,0
2022-12-24T04:18:11.586Z,0
2022-12-24T04:23:11.551Z,0
2022-12-24T04:28:11.582Z,0
2022-12-24T04:33:11.556Z,0
2022-12-24T04:38:11.612Z,0
2022-12-24T04:43:11.533Z,0
2022-12-24T04:48:11.548Z,0
2022-12-24T04:53:11.570Z,0
2022-12-24T04:58:11.587Z,0
2022-12-24T05:03:11.596Z,0
2022-12-24T05:08:11.572Z,0
2022-12-24T05:13:11.548Z,0
2022-12-24T05:18:11.549Z,0
2022-12-24T05:23:11.571Z,0
2022-12-24T05:28:11.568Z,0
2022-12-24T05:33:11.547Z,0
2022-12-24T05:38:11.590Z,0
2022-12-24T05:43:11.557Z,0
2022-12-24T05:48:11.531Z,0
2022-12-24T05:53:11.553Z,0
2022-12-24T05:58:11.549Z,0
2022-12-24T06:03:11.539Z,0
2022-12-24T06:08:11.563Z,0
2022-12-24T06:13:11.535Z,0
2022-12-24T06:18:11.575Z,0
2022-12-24T06:23:11.570Z,0
2022-12-24T06:28:11.553Z,0
2022-12-24T06:33:11.540Z,0
2022-12-24T06:38:11.548Z,0
2022-12-24T06:43:11.532Z,0
2022-12-24T06:48:11.517Z,0
2022-12-24T06:53:11.538Z,0
2022-12-24T06:58:11.565Z,0
2022-12-24T07:03:14.032Z,0
2022-12-24T07:08:13.990Z,0
2022-12-24T07:13:13.989Z,0
2022-12-24T07:18:14.048Z,0
2022-12-24T07:23:14.040Z,0
2022-12-24T07:28:14.754Z,0
2022-12-24T07:33:14.730Z,0
2022-12-24T07:38:14.759Z,0
2022-12-24T07:43:14.753Z,1
2022-12-24T07:48:14.742Z,4
2022-12-24T07:53:15.326Z,4
2022-12-24T07:58:15.353Z,1
2022-12-24T08:03:15.380Z,0
2022-12-24T08:08:15.325Z,4
2022-12-24T08:13:15.345Z,1
2022-12-24T08:18:15.347Z,2
2022-12-24T08:23:15.323Z,2
2022-12-24T08:28:15.324Z,9
2022-12-24T08:33:15.317Z,12
2022-12-24T08:38:15.339Z,8
2022-12-24T08:43:16.182Z,9
2022-12-24T08:48:16.172Z,11
2022-12-24T08:53:16.162Z,19
2022-12-24T08:58:16.187Z,17
2022-12-24T09:03:17.657Z,19
2022-12-24T09:08:16.143Z,14
2022-12-24T09:13:16.141Z,8
2022-12-24T09:18:16.160Z,22
2022-12-24T09:23:16.389Z,22
2022-12-24T09:28:16.420Z,19
2022-12-24T09:33:16.632Z,32
2022-12-24T09:38:16.681Z,65
2022-12-24T09:43:16.671Z,15
2022-12-24T09:48:17.574Z,12
2022-12-24T09:53:17.541Z,20
2022-12-24T09:58:17.835Z,60
2022-12-24T10:03:17.874Z,19
2022-12-24T10:08:17.839Z,14
2022-12-24T10:13:17.818Z,5
2022-12-24T10:18:17.821Z,12
2022-12-24T10:23:17.809Z,36
2022-12-24T10:28:17.852Z,26
2022-12-24T10:33:17.828Z,23
2022-12-24T10:38:17.851Z,16
2022-12-24T10:43:17.829Z,15
2022-12-24T10:48:17.806Z,14
2022-12-24T10:53:17.804Z,63
2022-12-24T10:58:17.827Z,68
2022-12-24T11:03:18.110Z,50
2022-12-24T11:08:18.054Z,75
2022-12-24T11:13:39.946Z,88
2022-12-24T11:18:18.393Z,39
2022-12-24T11:23:18.550Z,61
2022-12-24T11:28:18.637Z,36
2022-12-24T11:33:19.197Z,51
2022-12-24T11:38:18.917Z,56
2022-12-24T11:43:18.764Z,93
2022-12-24T11:48:18.851Z,134
2022-12-24T11:53:18.797Z,142
2022-12-24T11:58:18.805Z,232
2022-12-24T12:03:18.860Z,169
2022-12-24T12:08:18.811Z,113
2022-12-24T12:13:18.886Z,119
2022-12-24T12:18:18.828Z,202
2022-12-24T12:23:18.783Z,212
2022-12-24T12:28:18.796Z,133
2022-12-24T12:33:18.832Z,33
2022-12-24T12:38:18.804Z,30
2022-12-24T12:43:19.047Z,136
2022-12-24T12:48:19.028Z,162
2022-12-24T12:53:19.050Z,64
2022-12-24T12:58:19.071Z,60
2022-12-24T13:03:19.052Z,136
2022-12-24T13:08:19.048Z,96
2022-12-24T13:13:20.634Z,87
2022-12-24T13:18:19.912Z,118
2022-12-24T13:23:19.870Z,75
2022-12-24T13:28:19.886Z,31
2022-12-24T13:33:19.869Z,31
2022-12-24T13:38:19.876Z,35
2022-12-24T13:43:19.865Z,21
2022-12-24T13:48:19.869Z,14
2022-12-24T13:53:19.860Z,14
2022-12-24T13:58:19.885Z,21
2022-12-24T14:03:19.912Z,33
2022-12-24T14:08:19.838Z,22
2022-12-24T14:13:19.863Z,23
2022-12-24T14:18:19.887Z,22
2022-12-24T14:23:20.586Z,20
2022-12-24T14:28:20.586Z,32
2022-12-24T14:33:20.565Z,22
2022-12-24T14:38:21.705Z,15
2022-12-24T14:43:21.638Z,12
2022-12-24T14:48:21.609Z,12
2022-12-24T14:53:25.846Z,11
2022-12-24T14:58:25.793Z,17
2022-12-24T15:03:25.850Z,8
2022-12-24T15:08:25.791Z,2
2022-12-24T15:13:25.824Z,0
2022-12-24T15:18:26.496Z,0
2022-12-24T15:23:26.471Z,0
2022-12-24T15:28:26.504Z,0
2022-12-24T15:33:26.493Z,0
2022-12-24T15:38:26.507Z,0
2022-12-24T15:43:26.501Z,0
2022-12-24T15:48:26.483Z,0
2022-12-24T15:53:26.515Z,0
2022-12-24T15:58:26.456Z,0
2022-12-24T16:03:26.544Z,0
2022-12-24T16:08:27.246Z,0
2022-12-24T16:13:27.290Z,0
2022-12-24T16:18:27.244Z,0
2022-12-24T16:23:27.235Z,0
2022-12-24T16:28:27.243Z,0
2022-12-24T16:33:27.252Z,0
2022-12-24T16:38:27.247Z,0
2022-12-24T16:43:28.304Z,0
2022-12-24T16:48:28.870Z,0
2022-12-24T16:53:28.918Z,0
2022-12-24T16:58:28.886Z,0
2022-12-24T17:03:28.969Z,0
2022-12-24T17:08:28.876Z,0
2022-12-24T17:13:29.692Z,0
2022-12-24T17:18:29.634Z,0
2022-12-24T17:23:29.623Z,0
2022-12-24T17:28:29.667Z,0
2022-12-24T17:33:30.390Z,0
2022-12-24T17:38:30.423Z,0
2022-12-24T17:43:30.402Z,0
2022-12-24T17:48:30.430Z,0
2022-12-24T17:53:30.461Z,0
2022-12-24T17:58:30.447Z,0
2022-12-24T18:03:30.719Z,0
2022-12-24T18:08:30.660Z,0
2022-12-24T18:13:30.652Z,0
2022-12-24T18:18:30.664Z,0
2022-12-24T18:23:30.654Z,0
2022-12-24T18:28:30.703Z,0
2022-12-24T18:33:30.703Z,0
2022-12-24T18:38:31.322Z,0
2022-12-24T18:43:31.333Z,0
2022-12-24T18:48:31.331Z,0
2022-12-24T18:53:31.356Z,0
2022-12-24T18:58:31.336Z,0
2022-12-24T19:03:31.333Z,0
2022-12-24T19:08:56.872Z,0
2022-12-24T19:13:31.301Z,0
2022-12-24T19:18:31.302Z,0
2022-12-24T19:23:31.322Z,0
2022-12-24T19:28:31.320Z,0
2022-12-24T19:33:31.349Z,0
2022-12-24T19:38:31.296Z,0
2022-12-24T19:43:31.292Z,0
2022-12-24T19:48:31.299Z,0
2022-12-24T19:53:31.297Z,0
2022-12-24T19:58:31.267Z,0
2022-12-24T20:03:31.374Z,0
2022-12-24T20:08:31.279Z,0
2022-12-24T20:13:31.309Z,0
2022-12-24T20:18:31.298Z,0
2022-12-24T20:23:31.267Z,0
2022-12-24T20:28:31.306Z,0
2022-12-24T20:33:31.318Z,0
2022-12-24T20:38:31.301Z,0
2022-12-24T20:43:36.259Z,0
2022-12-24T20:48:32.416Z,0
2022-12-24T20:53:33.317Z,0
2022-12-24T20:58:33.250Z,0
2022-12-24T21:03:33.334Z,0
2022-12-24T21:08:33.245Z,0
2022-12-24T21:13:33.267Z,0
2022-12-24T21:18:33.270Z,0
2022-12-24T21:23:33.259Z,0
2022-12-24T21:28:33.232Z,0
2022-12-24T21:33:37.879Z,0
2022-12-24T21:38:33.290Z,0
2022-12-24T21:43:34.026Z,0
2022-12-24T21:48:34.001Z,0
2022-12-24T21:53:34.051Z,0
2022-12-24T21:58:33.996Z,0
2022-12-24T22:03:34.318Z,0
2022-12-24T22:08:34.242Z,0
2022-12-24T22:13:34.276Z,0
2022-12-24T22:18:34.252Z,0
2022-12-24T22:23:38.638Z,0
2022-12-24T22:28:34.515Z,0
2022-12-24T22:33:34.503Z,0
2022-12-24T22:38:34.487Z,0
2022-12-24T22:43:34.481Z,0
2022-12-24T22:48:35.139Z,0
2022-12-24T22:53:35.191Z,0
2022-12-24T22:58:35.163Z,0
2022-12-24T23:03:35.261Z,0
2022-12-24T23:08:35.198Z,0
2022-12-24T23:13:35.213Z,0
2022-12-24T23:18:35.175Z,0
2022-12-24T23:23:37.260Z,0
2022-12-24T23:28:35.179Z,0
2022-12-24T23:33:37.570Z,0
2022-12-24T23:38:37.583Z,0
2022-12-24T23:43:37.557Z,0
2022-12-24T23:48:38.384Z,0
2022-12-24T23:53:38.408Z,0
2022-12-24T23:58:38.372Z,0
